Airfield :
LOGIN :

Register | Disclaimer

   EN    FR    IT 

 










Legend :    VFR   Marginal VFR   IFR   Intensive IFR   Very Intensive IFR
Visi :
Ceiling :
>= 8 km
>= 3000ft
5 to 8 km
1000 to 3000 ft
1500m to 5 km
500 to 1000 ft
800 to 1500m
200 to 500 ft
< 800m
< 200 ft
Symbols :   Thunderstorms  Fog  Heavy snow  Heavy precipitations  Wind > 20 kt
SIGMETs :     Misc.  Thunderstorms  Icing  Turbulence  Mountain Waves  Volcanic Ashes






- Airport Elevation : 32 ft
- IATA code : LKZ


EGUL - RAF Lakenheath

CURRENT METAR :
  • 270708Z 00000KT 9000 -SN FEW005 SCT010 OVC017 01/00 A2943 RMK CIG 016 RWY06 SLP970 $

EXPIRED METARs :
  • 270656Z 00000KT 9999 -RASN FEW005 SCT010 OVC016 01/00 A2943 RMK AO2A CIG 014 RWY06 SLP970 P0003 T00120003 $
  • 270631Z AUTO 15003KT 9999 -RA OVC019 02/00 A2944 RMK AO2 CIG 019V023 CIG 018 RWY06 SLPNO $
  • 270626Z 16003KT 9999 -RA FEW005 SCT010 OVC018 02/01 A2944 RMK SLPNO $
  • 270616Z AUTO 17004KT 9999 -RA OVC021 02/00 A2945 RMK AO2 SLPNO $
  • 270601Z AUTO 15003KT 9999 -RA FEW013 02/01 A2945 RMK AO2 SLPNO $
  • 270525Z AUTO 19004KT 9999 -RA BKN022 BKN029 03/01 A2946 RMK AO2 RAB13 CIG 019V028 SLPNO $
  • 270515Z AUTO 19006KT 9999 -RA FEW001 FEW029 03/00 A2947 RMK AO2 RAB13 SLP983 $
  • 270456Z AUTO 19006KT 9999 CLR 03/00 A2947 RMK AO2 RAB14E25 SLP983 P0000 T00321003 $
  • 270425Z AUTO 17006KT 9999 FEW031 03/00 A2949 RMK AO2 RAB14E25 SLP990 $

TAF TAF EGUL
Valid from the 27 at 05:00 until the 28 at 11:00 UTC


270500Z 2705/2811 18009KT 9999 BKN030 620309 QNH2945INS
BECMG 2705/2706 19009KT 8000 -RASN OVC015 620159 QNH2944INS
BECMG 2707/2708 19009KT 6000 -RASN OVC010 620109 QNH2944INS
TEMPO 2708/2711 3200 -SN OVC005 620059
BECMG 2712/2713 30015G25KT 9999 NSW SCT025 QNH2947INS
BECMG 2721/2722 26012KT 9999 FEW050 QNH2980INS
BECMG 2808/2809 16009KT 9999 BKN030 BKN070 620301 620709 QNH2970INS TX06/2715Z TN01/2707Z



MET'MAP, your aeronautical weather chart ! - Copyright ORBIFLY December 2007 - Disclaimer

ORBIFLY MET'MAP TEAM :

Programming & Development : Alexandra Zaïnal
Concept & original design : Baudouin d'Aumeries
Assistance for programming : Marc-Olivier Méhu
Technical & hardware support : Manuel Goepfert

Contact : metmap@orbifly.com




SOURCES & CREDITS :

   NOAA